createdAt,value
2022-12-27T00:00:16.362Z,64.12
2022-12-27T00:03:40.440Z,62.41
2022-12-27T00:06:43.312Z,59.12
2022-12-27T00:09:46.234Z,61.37
2022-12-27T00:12:49.053Z,64.08
2022-12-27T00:15:51.949Z,62.85
2022-12-27T00:18:54.842Z,61.37
2022-12-27T00:21:57.767Z,60.74
2022-12-27T00:25:00.569Z,59.45
2022-12-27T00:28:03.569Z,57.99
2022-12-27T00:31:06.914Z,61.63
2022-12-27T00:34:10.781Z,64.78
2022-12-27T00:37:13.714Z,63.46
2022-12-27T00:40:16.633Z,61.51
2022-12-27T00:43:19.456Z,60.58
2022-12-27T00:46:22.298Z,60.74
2022-12-27T00:49:26.127Z,61.42
2022-12-27T00:52:28.929Z,61.19
2022-12-27T00:55:31.765Z,60.24
2022-12-27T00:58:40.499Z,59.63
2022-12-27T01:01:43.875Z,59.79
2022-12-27T01:04:46.724Z,63.69
2022-12-27T01:07:49.515Z,65.34
2022-12-27T01:10:52.291Z,64.83
2022-12-27T01:14:00.683Z,65.55
2022-12-27T01:17:03.620Z,65.57
2022-12-27T01:20:07.228Z,65.86
2022-12-27T01:23:10.076Z,65.28
2022-12-27T01:26:19.602Z,63.61
2022-12-27T01:29:25.525Z,62.52
2022-12-27T01:32:28.438Z,62.12
2022-12-27T01:35:31.354Z,61.78
2022-12-27T01:38:34.142Z,62.36
2022-12-27T01:42:01.551Z,62.62
2022-12-27T01:45:26.070Z,62.44
2022-12-27T01:48:29.038Z,62.48
2022-12-27T01:51:31.863Z,62.97
2022-12-27T01:54:34.925Z,62.67
2022-12-27T01:57:38.219Z,63.04
2022-12-27T02:00:44.420Z,62.80
2022-12-27T02:03:52.869Z,63.08
2022-12-27T02:06:55.798Z,63.30
2022-12-27T02:10:00.439Z,63.54
2022-12-27T02:13:06.117Z,62.99
2022-12-27T02:16:18.490Z,62.88
2022-12-27T02:19:40.833Z,63.61
2022-12-27T02:23:21.718Z,63.28
2022-12-27T02:26:31.124Z,63.38
2022-12-27T02:29:51.741Z,63.06
2022-12-27T02:33:01.914Z,61.05
2022-12-27T02:36:10.453Z,60.99
2022-12-27T02:39:16.224Z,61.20
2022-12-27T02:42:39.468Z,61.42
2022-12-27T02:46:21.249Z,61.47
2022-12-27T02:49:47.804Z,62.81
2022-12-27T02:53:10.398Z,63.75
2022-12-27T02:56:38.070Z,63.58
2022-12-27T03:00:08.870Z,63.45
2022-12-27T03:03:29.069Z,64.37
2022-12-27T03:06:47.193Z,64.68
2022-12-27T03:10:21.422Z,65.94
2022-12-27T03:13:53.734Z,67.10
2022-12-27T03:17:07.136Z,66.69
2022-12-27T03:20:34.703Z,66.20
2022-12-27T03:23:58.721Z,65.99
2022-12-27T03:27:05.216Z,65.88
2022-12-27T03:30:28.271Z,66.36
2022-12-27T03:33:33.392Z,66.27
2022-12-27T03:36:54.920Z,66.31
2022-12-27T03:40:07.577Z,66.28
2022-12-27T03:43:16.181Z,66.44
2022-12-27T03:46:39.128Z,66.15
2022-12-27T03:49:51.569Z,67.16
2022-12-27T03:53:13.258Z,62.69
2022-12-27T03:56:16.129Z,59.76
2022-12-27T03:59:18.975Z,60.34
2022-12-27T04:02:22.131Z,64.44
2022-12-27T04:05:25.105Z,62.84
2022-12-27T04:08:46.792Z,60.06
2022-12-27T04:12:08.284Z,59.90
2022-12-27T04:15:30.143Z,64.28
2022-12-27T04:18:51.835Z,64.57
2022-12-27T04:22:13.199Z,60.43
2022-12-27T04:25:34.913Z,59.73
2022-12-27T04:28:56.630Z,64.35
2022-12-27T04:32:18.276Z,64.39
2022-12-27T04:35:21.420Z,65.30
2022-12-27T04:38:24.269Z,64.95
2022-12-27T04:41:45.784Z,61.44
2022-12-27T04:45:13.275Z,62.75
2022-12-27T04:48:36.944Z,65.61
2022-12-27T04:51:58.215Z,66.74
2022-12-27T04:55:17.046Z,67.34
2022-12-27T04:58:19.813Z,65.46
2022-12-27T05:01:41.554Z,64.48
2022-12-27T05:04:45.501Z,63.88
2022-12-27T05:08:18.067Z,64.18
2022-12-27T05:11:39.933Z,63.17
2022-12-27T05:14:43.042Z,64.97
2022-12-27T05:17:45.959Z,64.87
2022-12-27T05:20:48.984Z,67.60
2022-12-27T05:24:10.632Z,69.53
2022-12-27T05:27:13.570Z,71.66
2022-12-27T05:30:16.519Z,71.90
2022-12-27T05:33:19.362Z,70.77
2022-12-27T05:36:22.536Z,67.49
2022-12-27T05:39:25.338Z,67.73
2022-12-27T05:42:28.227Z,71.32
2022-12-27T05:45:31.213Z,70.74
2022-12-27T05:48:34.827Z,73.14
2022-12-27T05:51:37.677Z,75.29
2022-12-27T05:54:40.468Z,75.83
2022-12-27T05:57:43.294Z,77.13
2022-12-27T06:00:46.154Z,77.11
2022-12-27T06:03:48.972Z,75.16
2022-12-27T06:06:51.883Z,70.78
2022-12-27T06:09:54.788Z,66.98
2022-12-27T06:13:00.843Z,66.16
2022-12-27T06:16:05.899Z,63.95
2022-12-27T06:19:08.710Z,64.36
2022-12-27T06:22:11.481Z,64.07
2022-12-27T06:25:15.138Z,61.42
2022-12-27T06:28:18.012Z,61.50
2022-12-27T06:31:21.942Z,60.07
2022-12-27T06:34:24.755Z,57.85
2022-12-27T06:37:27.679Z,60.94
2022-12-27T06:40:30.505Z,66.88
2022-12-27T06:43:34.085Z,67.53
2022-12-27T06:46:37.059Z,67.81
2022-12-27T06:49:39.849Z,67.29
2022-12-27T06:52:42.615Z,66.69
2022-12-27T06:55:45.440Z,65.85
2022-12-27T06:58:49.443Z,66.37
2022-12-27T07:01:52.402Z,66.22
2022-12-27T07:04:55.314Z,66.60
2022-12-27T07:07:58.102Z,67.04
2022-12-27T07:11:07.204Z,67.05
2022-12-27T07:14:10.647Z,65.93
2022-12-27T07:17:13.445Z,64.87
2022-12-27T07:20:16.302Z,65.27
2022-12-27T07:23:19.488Z,67.65
2022-12-27T07:26:27.011Z,63.35
2022-12-27T07:29:29.824Z,61.74
2022-12-27T07:32:32.620Z,61.44
2022-12-27T07:35:37.618Z,62.39
2022-12-27T07:38:44.753Z,63.28
2022-12-27T07:41:47.518Z,63.89
2022-12-27T07:44:50.430Z,64.09
2022-12-27T07:47:57.839Z,63.64
2022-12-27T07:53:14.521Z,63.23
2022-12-27T07:56:41.133Z,63.95
2022-12-27T08:00:15.583Z,63.37
2022-12-27T08:03:19.620Z,64.29
2022-12-27T08:06:31.368Z,64.21
2022-12-27T08:09:38.069Z,64.32
2022-12-27T08:12:40.984Z,65.24
2022-12-27T08:15:44.484Z,64.34
2022-12-27T08:18:48.252Z,63.46
2022-12-27T08:21:51.074Z,64.23
2022-12-27T08:24:55.826Z,64.87
2022-12-27T08:28:07.333Z,64.17
2022-12-27T08:31:11.957Z,64.78
2022-12-27T08:34:14.959Z,65.10
2022-12-27T08:37:17.821Z,64.73
2022-12-27T08:40:20.691Z,64.62
2022-12-27T08:43:23.551Z,64.39
2022-12-27T08:46:26.369Z,65.40
2022-12-27T08:49:29.209Z,63.68
2022-12-27T08:52:32.001Z,63.15
2022-12-27T08:55:35.060Z,58.01
2022-12-27T08:58:37.865Z,57.70
2022-12-27T09:01:40.814Z,60.98
2022-12-27T09:04:43.683Z,67.78
2022-12-27T09:07:47.276Z,67.53
2022-12-27T09:10:50.122Z,59.47
2022-12-27T09:13:53.359Z,56.55
2022-12-27T09:16:56.427Z,59.42
2022-12-27T09:19:59.660Z,65.34
2022-12-27T09:23:02.472Z,63.85
2022-12-27T09:26:07.566Z,60.67
2022-12-27T09:29:10.920Z,58.16
2022-12-27T09:32:13.697Z,57.67
2022-12-27T09:35:16.867Z,61.08
2022-12-27T09:38:22.833Z,68.43
2022-12-27T09:42:12.153Z,65.74
2022-12-27T09:45:04.245Z,57.19
2022-12-27T09:48:33.389Z,55.78
2022-12-27T09:51:54.530Z,61.01
2022-12-27T09:55:05.799Z,67.35
2022-12-27T09:58:49.895Z,60.65
2022-12-27T10:01:52.972Z,58.03
2022-12-27T10:05:19.849Z,60.67
2022-12-27T10:08:26.005Z,68.53
2022-12-27T10:12:29.801Z,62.20
2022-12-27T10:15:50.112Z,56.82
2022-12-27T10:19:14.727Z,61.37
2022-12-27T10:22:35.985Z,66.12
2022-12-27T10:25:40.508Z,61.62
2022-12-27T10:28:54.332Z,57.49
2022-12-27T10:32:00.039Z,59.58
2022-12-27T10:35:04.910Z,65.68
2022-12-27T10:38:11.677Z,65.39
2022-12-27T10:41:50.910Z,60.29
2022-12-27T10:45:33.922Z,56.59
2022-12-27T10:49:10.873Z,60.12
2022-12-27T10:52:10.906Z,65.12
2022-12-27T10:55:33.651Z,61.22
2022-12-27T10:58:51.536Z,54.91
2022-12-27T11:02:02.740Z,56.57
2022-12-27T11:05:28.727Z,60.50
2022-12-27T11:08:32.011Z,65.37
2022-12-27T11:11:34.795Z,58.79
2022-12-27T11:14:37.968Z,55.69
2022-12-27T11:17:44.440Z,59.52
2022-12-27T11:20:56.356Z,62.16
2022-12-27T11:24:01.787Z,64.92
2022-12-27T11:27:05.090Z,59.27
2022-12-27T11:30:21.735Z,55.49
2022-12-27T11:33:29.442Z,58.52
2022-12-27T11:36:40.754Z,61.96
2022-12-27T11:39:55.191Z,66.03
2022-12-27T11:43:09.483Z,59.35
2022-12-27T11:46:21.814Z,55.34
2022-12-27T11:49:32.504Z,58.68
2022-12-27T11:52:54.847Z,61.35
2022-12-27T11:56:14.137Z,58.02
2022-12-27T11:59:48.277Z,53.95
2022-12-27T12:03:12.856Z,56.75
2022-12-27T12:06:28.789Z,59.55
2022-12-27T12:09:37.018Z,61.36
2022-12-27T12:13:21.629Z,64.55
2022-12-27T12:16:46.412Z,60.18
2022-12-27T12:19:58.685Z,57.99
2022-12-27T12:23:10.540Z,60.35
2022-12-27T12:26:25.203Z,61.01
2022-12-27T12:30:01.713Z,63.37
2022-12-27T12:33:31.267Z,60.45
2022-12-27T12:36:52.682Z,58.92
2022-12-27T12:40:33.811Z,61.83
2022-12-27T12:43:59.634Z,64.03
2022-12-27T12:47:29.928Z,61.19
2022-12-27T12:50:57.968Z,57.47
2022-12-27T12:54:06.885Z,58.59
2022-12-27T12:57:18.696Z,61.19
2022-12-27T13:00:51.726Z,63.31
2022-12-27T13:04:33.654Z,57.67
2022-12-27T13:07:42.375Z,59.57
2022-12-27T13:10:57.593Z,60.61
2022-12-27T13:14:19.431Z,62.52
2022-12-27T13:17:33.555Z,62.25
2022-12-27T13:20:57.773Z,54.99
2022-12-27T13:24:19.027Z,54.34
2022-12-27T13:27:35.587Z,56.45
2022-12-27T13:31:03.645Z,58.44
2022-12-27T13:34:21.788Z,60.92
2022-12-27T13:37:37.493Z,61.92
2022-12-27T13:41:15.000Z,63.97
2022-12-27T13:44:51.205Z,55.10
2022-12-27T13:48:21.829Z,55.39
2022-12-27T13:51:42.996Z,58.43
2022-12-27T13:55:03.142Z,61.09
2022-12-27T13:58:37.117Z,63.63
2022-12-27T14:01:55.502Z,61.09
2022-12-27T14:05:01.422Z,61.54
2022-12-27T14:08:35.661Z,59.07
2022-12-27T14:12:02.751Z,52.57
2022-12-27T14:15:08.543Z,56.45
2022-12-27T14:18:27.635Z,59.60
2022-12-27T14:22:02.559Z,62.45
2022-12-27T14:25:24.288Z,64.45
2022-12-27T14:29:00.067Z,58.96
2022-12-27T14:32:22.070Z,58.02
2022-12-27T14:36:01.883Z,61.24
2022-12-27T14:39:20.126Z,63.52
2022-12-27T14:43:04.807Z,60.75
2022-12-27T14:46:16.644Z,55.53
2022-12-27T14:49:34.732Z,59.22
2022-12-27T14:53:21.685Z,62.77
2022-12-27T14:56:36.871Z,59.11
2022-12-27T14:59:55.191Z,55.10
2022-12-27T15:03:09.951Z,58.70
2022-12-27T15:06:34.646Z,62.29
2022-12-27T15:10:04.821Z,63.71
2022-12-27T15:13:46.172Z,62.07
2022-12-27T15:17:03.869Z,61.80
2022-12-27T15:20:32.173Z,62.35
2022-12-27T15:23:47.238Z,61.38
2022-12-27T15:27:01.459Z,59.92
2022-12-27T15:30:12.392Z,57.65
2022-12-27T15:33:41.297Z,60.12
2022-12-27T15:36:47.309Z,64.30
2022-12-27T15:39:50.680Z,61.80
2022-12-27T15:42:59.588Z,57.87
2022-12-27T15:46:18.103Z,59.21
2022-12-27T15:49:40.006Z,63.12
2022-12-27T15:52:53.362Z,63.82
2022-12-27T15:56:22.789Z,62.64
2022-12-27T16:00:10.969Z,60.31
2022-12-27T16:03:34.569Z,57.87
2022-12-27T16:06:43.634Z,59.99
2022-12-27T16:09:46.828Z,63.18
2022-12-27T16:12:50.034Z,64.82
2022-12-27T16:15:54.420Z,65.19
2022-12-27T16:19:04.226Z,66.06
2022-12-27T16:22:23.897Z,66.11
2022-12-27T16:25:37.670Z,66.45
2022-12-27T16:28:40.580Z,66.78
2022-12-27T16:31:51.089Z,66.72
2022-12-27T16:34:56.725Z,67.20
2022-12-27T16:38:03.936Z,66.82
2022-12-27T16:41:25.241Z,66.57
2022-12-27T16:44:30.721Z,66.12
2022-12-27T16:48:06.376Z,65.57
2022-12-27T16:51:19.628Z,65.74
2022-12-27T16:54:43.690Z,65.19
2022-12-27T16:57:50.522Z,65.56
2022-12-27T17:01:05.839Z,65.85
2022-12-27T17:05:06.023Z,65.97
2022-12-27T17:08:28.968Z,66.18
2022-12-27T17:11:32.735Z,67.11
2022-12-27T17:14:38.432Z,64.05
2022-12-27T17:17:45.498Z,62.26
2022-12-27T17:20:58.506Z,61.95
2022-12-27T17:24:10.398Z,63.65
2022-12-27T17:27:25.423Z,61.06
2022-12-27T17:30:45.982Z,57.54
2022-12-27T17:34:18.393Z,57.13
2022-12-27T17:37:41.504Z,59.68
2022-12-27T17:41:09.140Z,64.67
2022-12-27T17:44:39.838Z,63.57
2022-12-27T17:47:54.334Z,62.56
2022-12-27T17:51:02.977Z,62.33
2022-12-27T17:54:42.644Z,62.23
2022-12-27T17:57:55.187Z,61.84
2022-12-27T18:01:01.493Z,62.05
2022-12-27T18:04:06.645Z,62.16
2022-12-27T18:07:14.857Z,61.60
2022-12-27T18:10:28.022Z,61.96
2022-12-27T18:13:39.681Z,62.29
2022-12-27T18:16:42.615Z,61.67
2022-12-27T18:19:45.464Z,61.93
2022-12-27T18:22:48.213Z,62.24
2022-12-27T18:25:54.826Z,61.59
2022-12-27T18:28:57.774Z,58.08
2022-12-27T18:32:08.894Z,57.54
2022-12-27T18:35:24.137Z,59.78
2022-12-27T18:38:35.579Z,60.13
2022-12-27T18:41:53.292Z,64.68
2022-12-27T18:45:02.055Z,65.94
2022-12-27T18:48:11.986Z,62.12
2022-12-27T18:51:15.139Z,59.27
2022-12-27T18:54:35.890Z,60.30
2022-12-27T18:57:38.647Z,62.12
2022-12-27T19:00:49.850Z,65.65
2022-12-27T19:04:19.030Z,64.85
2022-12-27T19:07:21.930Z,63.40
2022-12-27T19:10:27.823Z,62.83
2022-12-27T19:13:43.579Z,62.55
2022-12-27T19:16:56.169Z,62.74
2022-12-27T19:20:03.335Z,60.62
2022-12-27T19:23:35.736Z,58.35
2022-12-27T19:26:38.653Z,58.78
2022-12-27T19:29:52.435Z,62.88
2022-12-27T19:32:55.246Z,64.58
2022-12-27T19:35:58.719Z,63.99
2022-12-27T19:39:01.641Z,61.79
2022-12-27T19:42:07.921Z,61.60
2022-12-27T19:45:17.652Z,60.37
2022-12-27T19:48:20.442Z,56.66
2022-12-27T19:51:23.357Z,57.23
2022-12-27T19:54:26.196Z,59.45
2022-12-27T19:57:29.042Z,60.80
2022-12-27T20:00:32.192Z,64.70
2022-12-27T20:03:35.795Z,66.80
2022-12-27T20:06:38.931Z,63.79
2022-12-27T20:09:41.666Z,60.84
2022-12-27T20:12:44.461Z,58.62
2022-12-27T20:15:48.622Z,57.30
2022-12-27T20:18:51.397Z,60.09
2022-12-27T20:21:54.184Z,64.42
2022-12-27T20:24:56.991Z,67.31
2022-12-27T20:27:59.800Z,63.35
2022-12-27T20:31:10.860Z,58.51
2022-12-27T20:34:14.097Z,57.01
2022-12-27T20:37:22.628Z,58.93
2022-12-27T20:40:28.685Z,62.63
2022-12-27T20:43:31.545Z,67.38
2022-12-27T20:46:34.386Z,63.52
2022-12-27T20:49:37.155Z,56.95
2022-12-27T20:52:40.299Z,55.15
2022-12-27T20:55:43.097Z,59.13
2022-12-27T20:58:45.944Z,61.16
2022-12-27T21:01:54.792Z,67.32
2022-12-27T21:05:00.009Z,66.51
2022-12-27T21:08:02.795Z,56.57
2022-12-27T21:11:10.927Z,54.64
2022-12-27T21:14:13.735Z,58.19
2022-12-27T21:17:17.679Z,62.23
2022-12-27T21:20:20.611Z,66.98
2022-12-27T21:23:23.423Z,62.13
2022-12-27T21:26:32.278Z,54.81
2022-12-27T21:29:35.229Z,53.33
2022-12-27T21:32:38.031Z,55.86
2022-12-27T21:35:40.824Z,60.10
2022-12-27T21:38:44.374Z,66.00
2022-12-27T21:41:47.152Z,67.97
2022-12-27T21:44:49.944Z,62.67
2022-12-27T21:47:52.728Z,58.18
2022-12-27T21:50:55.682Z,53.08
2022-12-27T21:53:59.238Z,53.99
2022-12-27T21:57:02.174Z,57.41
2022-12-27T22:00:05.513Z,60.36
2022-12-27T22:03:08.536Z,66.17
2022-12-27T22:06:11.970Z,65.01
2022-12-27T22:09:15.595Z,62.82
2022-12-27T22:12:18.400Z,60.84
2022-12-27T22:15:21.305Z,53.33
2022-12-27T22:18:24.734Z,51.76
2022-12-27T22:21:30.986Z,54.75
2022-12-27T22:24:33.897Z,57.94
2022-12-27T22:27:36.812Z,58.62
2022-12-27T22:30:40.947Z,59.94
2022-12-27T22:33:44.047Z,65.40
2022-12-27T22:36:51.862Z,71.20
2022-12-27T22:39:54.838Z,65.60
2022-12-27T22:42:57.652Z,56.83
2022-12-27T22:46:00.546Z,53.47
2022-12-27T22:49:04.683Z,56.83
2022-12-27T22:52:07.467Z,59.52
2022-12-27T22:55:11.504Z,60.86
2022-12-27T22:58:14.515Z,68.11
2022-12-27T23:01:22.691Z,65.19
2022-12-27T23:04:25.692Z,64.64
2022-12-27T23:08:03.481Z,61.42
2022-12-27T23:10:51.601Z,60.04
2022-12-27T23:13:57.740Z,56.42
2022-12-27T23:17:00.945Z,54.68
2022-12-27T23:20:04.278Z,55.99
2022-12-27T23:23:07.133Z,58.83
2022-12-27T23:26:14.171Z,61.71
2022-12-27T23:29:17.021Z,68.64
2022-12-27T23:32:19.863Z,66.26
2022-12-27T23:35:22.666Z,60.49
2022-12-27T23:38:26.446Z,55.31
2022-12-27T23:41:29.343Z,54.30
2022-12-27T23:44:34.366Z,55.88
2022-12-27T23:47:38.205Z,57.26
2022-12-27T23:50:41.392Z,62.15
2022-12-27T23:53:44.308Z,64.42
2022-12-27T23:56:47.217Z,66.07
2022-12-27T23:59:51.825Z,65.38
